createdAt,value
2018-02-08T00:00:08.038Z,42.03
2018-02-08T00:02:36.385Z,39.73
2018-02-08T00:05:04.727Z,43.60
2018-02-08T00:07:33.083Z,40.40
2018-02-08T00:10:01.413Z,41.83
2018-02-08T00:12:29.783Z,39.90
2018-02-08T00:14:58.123Z,39.17
2018-02-08T00:17:26.475Z,41.90
2018-02-08T00:19:54.811Z,42.27
2018-02-08T00:22:34.972Z,41.60
2018-02-08T00:25:03.386Z,42.90
2018-02-08T00:27:31.728Z,40.20
2018-02-08T00:30:00.958Z,42.30
2018-02-08T00:32:29.336Z,39.80
2018-02-08T00:34:57.686Z,42.20
2018-02-08T00:37:26.013Z,44.37
2018-02-08T00:39:55.369Z,41.60
2018-02-08T00:42:23.706Z,44.70
2018-02-08T00:44:52.057Z,44.70
2018-02-08T00:47:20.383Z,41.40
2018-02-08T00:49:49.173Z,44.37
2018-02-08T00:52:17.505Z,43.67
2018-02-08T00:54:45.943Z,44.20
2018-02-08T00:57:14.287Z,43.07
2018-02-08T00:59:42.621Z,42.70
2018-02-08T01:02:10.966Z,44.07
2018-02-08T01:04:39.308Z,45.63
2018-02-08T01:07:07.658Z,43.40
2018-02-08T01:09:35.995Z,44.97
2018-02-08T01:12:04.377Z,43.83
2018-02-08T01:14:32.698Z,42.93
2018-02-08T01:17:01.068Z,44.77
2018-02-08T01:19:29.412Z,42.77
2018-02-08T01:21:57.746Z,43.13
2018-02-08T01:24:26.116Z,42.43
2018-02-08T01:26:54.445Z,45.10
2018-02-08T01:29:22.817Z,45.77
2018-02-08T01:31:51.145Z,45.50
2018-02-08T01:34:19.523Z,44.47
2018-02-08T01:36:47.859Z,41.87
2018-02-08T01:39:16.211Z,42.90
2018-02-08T01:41:44.588Z,43.40
2018-02-08T01:44:12.946Z,45.90
2018-02-08T01:46:41.266Z,44.40
2018-02-08T01:49:09.842Z,45.80
2018-02-08T01:51:38.220Z,43.70
2018-02-08T01:54:06.554Z,44.90
2018-02-08T01:56:34.908Z,45.50
2018-02-08T01:59:03.230Z,46.00
2018-02-08T02:01:31.577Z,45.67
2018-02-08T02:03:59.907Z,44.50
2018-02-08T02:06:28.293Z,44.23
2018-02-08T02:08:56.667Z,43.63
2018-02-08T02:11:25.091Z,46.47
2018-02-08T02:13:53.417Z,45.93
2018-02-08T02:16:21.793Z,45.00
2018-02-08T02:18:50.191Z,45.20
2018-02-08T02:21:18.523Z,45.47
2018-02-08T02:23:46.883Z,48.27
2018-02-08T02:26:15.223Z,47.33
2018-02-08T02:28:43.596Z,47.00
2018-02-08T02:31:11.910Z,48.63
2018-02-08T02:33:40.254Z,44.07
2018-02-08T02:36:08.611Z,45.10
2018-02-08T02:38:37.026Z,46.70
2018-02-08T02:41:05.345Z,46.60
2018-02-08T02:43:33.735Z,47.20
2018-02-08T02:46:02.064Z,46.53
2018-02-08T02:48:30.453Z,45.47
2018-02-08T02:50:58.773Z,45.40
2018-02-08T02:53:27.157Z,46.03
2018-02-08T02:55:55.482Z,48.23
2018-02-08T02:58:23.814Z,47.73
2018-02-08T03:00:52.174Z,49.37
2018-02-08T03:03:20.507Z,46.50
2018-02-08T03:05:48.860Z,46.40
2018-02-08T03:08:17.234Z,46.50
2018-02-08T03:10:45.617Z,48.80
2018-02-08T03:13:13.938Z,46.63
2018-02-08T03:15:42.306Z,46.90
2018-02-08T03:18:10.619Z,46.97
2018-02-08T03:20:38.993Z,47.03
2018-02-08T03:23:07.366Z,47.50
2018-02-08T03:25:35.722Z,48.80
2018-02-08T03:28:04.265Z,47.23
2018-02-08T03:30:38.312Z,47.77
2018-02-08T03:33:06.624Z,46.57
2018-02-08T03:35:34.959Z,47.67
2018-02-08T03:38:03.368Z,44.03
2018-02-08T03:40:31.714Z,48.70
2018-02-08T03:43:00.066Z,46.60
2018-02-08T03:45:28.401Z,46.43
2018-02-08T03:47:56.761Z,48.07
2018-02-08T03:50:25.095Z,47.50
2018-02-08T03:52:53.458Z,54.47
2018-02-08T03:55:21.787Z,47.57
2018-02-08T03:57:50.155Z,48.73
2018-02-08T04:00:18.485Z,47.23
2018-02-08T04:02:47.083Z,45.37
2018-02-08T04:05:15.414Z,48.37
2018-02-08T04:07:43.752Z,48.13
2018-02-08T04:10:12.126Z,48.20
2018-02-08T04:12:40.462Z,45.47
2018-02-08T04:15:08.829Z,47.40
2018-02-08T04:17:37.232Z,46.43
2018-02-08T04:20:05.570Z,48.70
2018-02-08T04:22:33.903Z,48.23
2018-02-08T04:25:02.249Z,49.30
2018-02-08T04:27:30.643Z,46.70
2018-02-08T04:29:59.097Z,50.73
2018-02-08T04:32:27.421Z,49.77
2018-02-08T04:34:55.751Z,48.47
2018-02-08T04:37:24.109Z,50.87
2018-02-08T04:40:04.439Z,48.27
2018-02-08T04:42:44.578Z,45.87
2018-02-08T04:45:24.702Z,44.80
2018-02-08T04:47:58.106Z,46.17
2018-02-08T04:50:26.520Z,49.47
2018-02-08T04:52:54.921Z,46.60
2018-02-08T04:55:23.258Z,50.30
2018-02-08T04:57:51.608Z,48.20
2018-02-08T05:00:20.226Z,48.23
2018-02-08T05:02:51.030Z,46.40
2018-02-08T05:05:19.356Z,50.37
2018-02-08T05:07:47.707Z,46.10
2018-02-08T05:10:16.034Z,50.13
2018-02-08T05:12:44.399Z,47.93
2018-02-08T05:15:12.729Z,46.67
2018-02-08T05:17:41.077Z,45.30
2018-02-08T05:20:09.455Z,48.07
2018-02-08T05:22:37.775Z,49.27
2018-02-08T05:25:06.190Z,49.27
2018-02-08T05:27:34.514Z,48.83
2018-02-08T05:30:02.891Z,47.90
2018-02-08T05:32:31.224Z,48.40
2018-02-08T05:34:59.572Z,47.77
2018-02-08T05:37:27.967Z,51.13
2018-02-08T05:39:56.460Z,49.87
2018-02-08T05:42:24.774Z,49.53
2018-02-08T05:44:53.114Z,49.30
2018-02-08T05:47:21.478Z,51.50
2018-02-08T05:49:49.854Z,50.33
2018-02-08T05:52:18.203Z,51.27
2018-02-08T05:54:46.547Z,48.43
2018-02-08T05:57:14.899Z,49.37
2018-02-08T05:59:43.325Z,48.50
2018-02-08T06:02:11.658Z,51.80
2018-02-08T06:04:40.014Z,50.90
2018-02-08T06:07:08.373Z,49.73
2018-02-08T06:09:36.714Z,47.87
2018-02-08T06:12:05.078Z,50.40
2018-02-08T06:14:33.471Z,48.00
2018-02-08T06:17:02.254Z,49.47
2018-02-08T06:19:30.632Z,48.97
2018-02-08T06:21:58.950Z,47.83
2018-02-08T06:24:27.308Z,49.67
2018-02-08T06:26:55.642Z,47.73
2018-02-08T06:29:24.008Z,50.00
2018-02-08T06:31:52.345Z,48.60
2018-02-08T06:34:20.705Z,51.80
2018-02-08T06:36:49.062Z,47.80
2018-02-08T06:39:17.463Z,48.00
2018-02-08T06:41:45.913Z,53.40
2018-02-08T06:44:14.319Z,50.40
2018-02-08T06:46:42.693Z,49.67
2018-02-08T06:49:11.002Z,51.40
2018-02-08T06:51:39.363Z,50.60
2018-02-08T06:54:07.716Z,49.20
2018-02-08T06:56:36.312Z,52.30
2018-02-08T06:59:04.630Z,49.17
2018-02-08T07:01:32.986Z,49.30
2018-02-08T07:04:01.338Z,48.67
2018-02-08T07:06:29.724Z,50.37
2018-02-08T07:08:58.115Z,54.23
2018-02-08T07:11:26.481Z,51.27
2018-02-08T07:13:54.801Z,52.37
2018-02-08T07:16:23.191Z,50.60
2018-02-08T07:18:51.525Z,48.47
2018-02-08T07:21:19.959Z,49.57
2018-02-08T07:23:48.443Z,51.50
2018-02-08T07:26:16.803Z,50.07
2018-02-08T07:31:24.245Z,48.90
2018-02-08T07:33:53.662Z,49.83
2018-02-08T07:36:22.054Z,50.20
2018-02-08T07:38:50.414Z,47.93
2018-02-08T07:41:18.749Z,49.30
2018-02-08T07:43:47.122Z,47.80
2018-02-08T07:46:15.473Z,47.83
2018-02-08T07:48:43.838Z,48.27
2018-02-08T07:51:15.381Z,49.30
2018-02-08T07:53:43.732Z,48.40
2018-02-08T07:56:13.058Z,50.50
2018-02-08T07:58:41.439Z,48.20
2018-02-08T08:01:09.919Z,48.67
2018-02-08T08:03:38.251Z,48.00
2018-02-08T08:06:06.605Z,48.23
2018-02-08T08:08:34.955Z,48.77
2018-02-08T08:11:03.346Z,48.37
2018-02-08T08:13:31.683Z,52.77
2018-02-08T08:16:00.074Z,48.60
2018-02-08T08:18:28.409Z,47.47
2018-02-08T08:20:56.795Z,48.40
2018-02-08T08:23:25.132Z,47.47
2018-02-08T08:25:53.487Z,46.33
2018-02-08T08:28:22.832Z,50.87
2018-02-08T08:30:51.204Z,47.57
2018-02-08T08:33:19.542Z,50.60
2018-02-08T08:35:47.886Z,48.20
2018-02-08T08:38:16.222Z,46.70
2018-02-08T08:40:45.603Z,48.60
2018-02-08T08:43:13.931Z,47.77
2018-02-08T08:45:42.292Z,49.90
2018-02-08T08:48:10.752Z,46.70
2018-02-08T08:50:39.231Z,47.57
2018-02-08T08:53:07.569Z,50.07
2018-02-08T08:55:35.898Z,48.57
2018-02-08T08:58:04.255Z,48.33
2018-02-08T09:00:32.579Z,48.63
2018-02-08T09:03:00.946Z,46.70
2018-02-08T09:05:29.357Z,49.83
2018-02-08T09:07:57.716Z,48.50
2018-02-08T09:10:26.051Z,44.93
2018-02-08T09:12:54.530Z,48.27
2018-02-08T09:15:22.854Z,47.80
2018-02-08T09:17:51.190Z,48.77
2018-02-08T09:20:19.538Z,47.20
2018-02-08T09:22:47.904Z,45.83
2018-02-08T09:25:16.254Z,47.50
2018-02-08T09:27:44.593Z,46.10
2018-02-08T09:30:12.945Z,48.43
2018-02-08T09:32:41.279Z,48.27
2018-02-08T09:35:09.731Z,48.43
2018-02-08T09:37:38.043Z,47.73
2018-02-08T09:40:06.400Z,46.00
2018-02-08T09:42:34.734Z,46.43
2018-02-08T09:45:03.098Z,48.53
2018-02-08T09:47:31.438Z,47.87
2018-02-08T09:49:59.902Z,47.77
2018-02-08T09:52:28.264Z,45.03
2018-02-08T09:54:56.656Z,48.30
2018-02-08T09:57:24.994Z,50.10
2018-02-08T09:59:53.413Z,45.90
2018-02-08T10:02:21.894Z,46.23
2018-02-08T10:04:50.205Z,47.80
2018-02-08T10:07:18.611Z,46.80
2018-02-08T10:09:47.028Z,48.17
2018-02-08T10:12:15.477Z,44.80
2018-02-08T10:14:43.795Z,49.47
2018-02-08T10:17:12.167Z,45.97
2018-02-08T10:19:40.482Z,46.47
2018-02-08T10:22:08.843Z,47.07
2018-02-08T10:24:37.198Z,44.37
2018-02-08T10:27:05.570Z,48.93
2018-02-08T10:29:33.926Z,48.93
2018-02-08T10:32:02.266Z,48.20
2018-02-08T10:34:30.626Z,42.93
2018-02-08T10:36:58.949Z,49.67
2018-02-08T10:39:27.293Z,47.37
2018-02-08T10:41:55.632Z,47.13
2018-02-08T10:44:23.985Z,45.53
2018-02-08T10:46:52.312Z,49.03
2018-02-08T10:49:20.675Z,50.60
2018-02-08T10:51:49.001Z,47.20
2018-02-08T10:54:17.410Z,46.20
2018-02-08T10:56:45.735Z,47.57
2018-02-08T10:59:14.095Z,50.33
2018-02-08T11:01:42.435Z,49.07
2018-02-08T11:04:10.904Z,48.80
2018-02-08T11:06:39.307Z,47.63
2018-02-08T11:09:07.618Z,50.83
2018-02-08T11:11:36.174Z,52.60
2018-02-08T11:14:04.660Z,48.17
2018-02-08T11:16:33.072Z,47.03
2018-02-08T11:19:01.410Z,50.37
2018-02-08T11:21:29.770Z,49.77
2018-02-08T11:23:58.111Z,46.73
2018-02-08T11:26:26.465Z,48.97
2018-02-08T11:28:54.835Z,46.90
2018-02-08T11:31:23.303Z,48.97
2018-02-08T11:33:51.705Z,48.87
2018-02-08T11:36:20.028Z,48.50
2018-02-08T11:38:48.386Z,52.50
2018-02-08T11:41:16.727Z,47.90
2018-02-08T11:43:45.076Z,47.00
2018-02-08T11:46:13.491Z,47.87
2018-02-08T11:48:41.822Z,49.00
2018-02-08T11:51:10.186Z,45.60
2018-02-08T11:53:38.528Z,46.70
2018-02-08T11:56:06.881Z,49.30
2018-02-08T11:58:35.210Z,51.17
2018-02-08T12:01:03.598Z,47.57
2018-02-08T12:03:31.947Z,48.33
2018-02-08T12:06:00.287Z,48.47
2018-02-08T12:08:28.629Z,46.87
2018-02-08T12:10:56.969Z,49.20
2018-02-08T12:13:25.305Z,48.90
2018-02-08T12:15:53.763Z,46.43
2018-02-08T12:18:22.267Z,49.27
2018-02-08T12:20:50.600Z,50.13
2018-02-08T12:23:18.929Z,47.97
2018-02-08T12:25:47.372Z,47.43
2018-02-08T12:28:15.686Z,47.33
2018-02-08T12:30:44.052Z,47.00
2018-02-08T12:33:12.426Z,49.17
2018-02-08T12:35:40.774Z,51.10
2018-02-08T12:38:09.106Z,51.60
2018-02-08T12:40:37.496Z,47.90
2018-02-08T12:43:05.836Z,48.50
2018-02-08T12:45:34.169Z,50.13
2018-02-08T12:48:02.509Z,49.03
2018-02-08T12:50:30.846Z,49.80
2018-02-08T12:52:59.245Z,48.40
2018-02-08T12:55:27.605Z,48.03
2018-02-08T12:57:55.956Z,46.57
2018-02-08T13:00:24.373Z,47.00
2018-02-08T13:02:52.735Z,47.50
2018-02-08T13:05:21.072Z,50.30
2018-02-08T13:07:49.398Z,47.10
2018-02-08T13:10:17.742Z,49.47
2018-02-08T13:12:46.068Z,52.77
2018-02-08T13:15:14.414Z,51.57
2018-02-08T13:17:42.766Z,51.10
2018-02-08T13:20:11.110Z,53.43
2018-02-08T13:22:39.446Z,51.70
2018-02-08T13:25:07.834Z,44.50
2018-02-08T13:27:36.153Z,50.37
2018-02-08T13:30:04.492Z,46.00
2018-02-08T13:32:32.871Z,51.60
2018-02-08T13:35:01.191Z,49.10
2018-02-08T13:37:29.592Z,49.40
2018-02-08T13:40:13.715Z,51.60
2018-02-08T13:42:42.235Z,47.60
2018-02-08T13:45:10.586Z,48.90
2018-02-08T13:47:44.538Z,50.20
2018-02-08T13:50:16.714Z,49.50
2018-02-08T13:52:50.827Z,50.90
2018-02-08T13:58:26.670Z,46.73
2018-02-08T14:00:59.503Z,52.50
2018-02-08T14:03:27.861Z,47.60
2018-02-08T14:05:56.255Z,48.73
2018-02-08T14:08:24.591Z,46.60
2018-02-08T14:10:52.942Z,47.70
2018-02-08T14:13:21.268Z,50.30
2018-02-08T14:15:49.660Z,51.10
2018-02-08T14:18:17.990Z,51.93
2018-02-08T14:20:46.332Z,52.27
2018-02-08T14:23:14.662Z,49.47
2018-02-08T14:25:43.000Z,48.40
2018-02-08T14:28:11.374Z,49.83
2018-02-08T14:30:39.702Z,52.50
2018-02-08T14:33:08.021Z,49.77
2018-02-08T14:35:36.423Z,51.50
2018-02-08T14:38:04.907Z,52.50
2018-02-08T14:40:33.223Z,55.67
2018-02-08T14:43:01.569Z,50.67
2018-02-08T14:45:29.949Z,51.47
2018-02-08T14:47:58.317Z,51.93
2018-02-08T14:50:26.638Z,50.40
2018-02-08T14:52:55.006Z,51.03
2018-02-08T14:55:23.314Z,49.40
2018-02-08T14:57:51.730Z,50.47
2018-02-08T15:00:20.040Z,50.23
2018-02-08T15:02:48.694Z,49.40
2018-02-08T15:05:17.070Z,48.30
2018-02-08T15:07:45.389Z,51.80
2018-02-08T15:10:13.784Z,53.30
2018-02-08T15:12:42.502Z,53.07
2018-02-08T15:15:10.849Z,52.80
2018-02-08T15:17:39.187Z,50.40
2018-02-08T15:20:07.649Z,55.23
2018-02-08T15:22:36.025Z,49.73
2018-02-08T15:25:04.368Z,44.50
2018-02-08T15:27:32.700Z,47.57
2018-02-08T15:30:01.055Z,48.00
2018-02-08T15:32:29.372Z,39.33
2018-02-08T15:34:57.756Z,40.17
2018-02-08T15:37:26.072Z,40.17
2018-02-08T15:39:54.920Z,43.80
2018-02-08T15:42:23.574Z,43.97
2018-02-08T15:44:51.940Z,44.17
2018-02-08T15:47:20.318Z,45.93
2018-02-08T15:49:48.635Z,45.03
2018-02-08T15:52:17.082Z,45.20
2018-02-08T15:54:45.559Z,45.03
2018-02-08T15:57:13.935Z,48.53
2018-02-08T15:59:42.251Z,42.97
2018-02-08T16:02:10.607Z,42.90
2018-02-08T16:04:38.945Z,45.10
2018-02-08T16:07:07.277Z,44.97
2018-02-08T16:09:35.615Z,46.37
2018-02-08T16:12:03.954Z,43.17
2018-02-08T16:14:32.316Z,45.27
2018-02-08T16:17:00.658Z,44.80
2018-02-08T16:19:29.003Z,44.37
2018-02-08T16:21:57.338Z,44.67
2018-02-08T16:24:25.690Z,45.60
2018-02-08T16:26:54.014Z,43.80
2018-02-08T16:29:22.374Z,41.43
2018-02-08T16:31:51.369Z,43.97
2018-02-08T16:34:19.782Z,42.73
2018-02-08T16:36:48.094Z,43.97
2018-02-08T16:39:16.490Z,42.63
2018-02-08T16:41:44.814Z,43.33
2018-02-08T16:44:13.153Z,46.07
2018-02-08T16:46:41.499Z,51.20
2018-02-08T16:49:09.863Z,52.77
2018-02-08T16:51:38.207Z,55.07
2018-02-08T16:54:06.552Z,50.10
2018-02-08T16:56:34.896Z,47.93
2018-02-08T16:59:03.301Z,51.23
2018-02-08T17:01:31.640Z,49.70
2018-02-08T17:03:59.970Z,53.63
2018-02-08T17:06:28.352Z,52.20
2018-02-08T17:08:56.656Z,51.83
2018-02-08T17:11:25.030Z,54.50
2018-02-08T17:13:53.541Z,55.40
2018-02-08T17:16:21.914Z,56.27
2018-02-08T17:18:50.285Z,50.73
2018-02-08T17:21:18.733Z,53.17
2018-02-08T17:23:47.958Z,52.67
2018-02-08T17:26:16.293Z,51.03
2018-02-08T17:28:44.839Z,54.30
2018-02-08T17:31:13.205Z,53.20
2018-02-08T17:33:41.546Z,52.27
2018-02-08T17:36:09.891Z,48.47
2018-02-08T17:38:38.235Z,49.60
2018-02-08T17:41:06.562Z,51.00
2018-02-08T17:43:34.898Z,48.73
2018-02-08T17:46:03.378Z,49.30
2018-02-08T17:48:31.782Z,48.60
2018-02-08T17:51:00.108Z,50.03
2018-02-08T17:53:28.440Z,46.40
2018-02-08T17:55:56.807Z,46.60
2018-02-08T17:58:25.119Z,47.83
2018-02-08T18:00:53.467Z,44.60
2018-02-08T18:03:21.797Z,45.53
2018-02-08T18:05:50.153Z,45.27
2018-02-08T18:08:18.486Z,43.97
2018-02-08T18:10:46.982Z,42.13
2018-02-08T18:13:15.287Z,47.33
2018-02-08T18:15:43.842Z,47.90
2018-02-08T18:18:12.156Z,41.40
2018-02-08T18:20:40.719Z,42.13
2018-02-08T18:23:09.067Z,45.13
2018-02-08T18:25:37.396Z,40.37
2018-02-08T18:28:05.717Z,44.40
2018-02-08T18:30:34.046Z,41.07
2018-02-08T18:33:02.362Z,41.60
2018-02-08T18:35:30.707Z,42.30
2018-02-08T18:37:59.058Z,42.40
2018-02-08T18:40:27.415Z,43.13
2018-02-08T18:42:55.728Z,44.53
2018-02-08T18:45:24.058Z,40.10
2018-02-08T18:47:52.373Z,39.33
2018-02-08T18:50:20.719Z,38.33
2018-02-08T18:52:49.058Z,36.97
2018-02-08T18:55:17.366Z,40.43
2018-02-08T18:57:45.762Z,39.20
2018-02-08T19:00:14.083Z,38.50
2018-02-08T19:02:42.520Z,38.27
2018-02-08T19:05:10.862Z,38.17
2018-02-08T19:07:39.272Z,38.93
2018-02-08T19:10:07.593Z,41.20
2018-02-08T19:12:35.909Z,38.73
2018-02-08T19:15:04.321Z,37.37
2018-02-08T19:17:32.685Z,37.00
2018-02-08T19:20:01.035Z,40.73
2018-02-08T19:22:29.399Z,40.77
2018-02-08T19:24:57.735Z,39.67
2018-02-08T19:27:26.056Z,41.60
2018-02-08T19:29:54.434Z,43.13
2018-02-08T19:32:22.772Z,40.97
2018-02-08T19:34:51.094Z,41.93
2018-02-08T19:37:19.442Z,40.10
2018-02-08T19:39:47.846Z,40.67
2018-02-08T19:42:16.162Z,39.83
2018-02-08T19:44:44.790Z,40.50
2018-02-08T19:47:13.126Z,36.90
2018-02-08T19:49:41.446Z,37.37
2018-02-08T19:52:09.769Z,39.10
2018-02-08T19:54:38.122Z,37.57
2018-02-08T19:57:06.463Z,39.30
2018-02-08T19:59:34.822Z,39.10
2018-02-08T20:02:03.258Z,38.83
2018-02-08T20:04:31.672Z,40.30
2018-02-08T20:07:00.047Z,40.17
2018-02-08T20:09:28.398Z,42.07
2018-02-08T20:11:56.727Z,41.10
2018-02-08T20:14:30.621Z,41.23
2018-02-08T20:16:58.955Z,39.07
2018-02-08T20:19:27.291Z,40.67
2018-02-08T20:21:55.643Z,42.20
2018-02-08T20:24:23.963Z,43.43
2018-02-08T20:26:52.367Z,42.63
2018-02-08T20:29:20.683Z,44.47
2018-02-08T20:31:49.003Z,44.23
2018-02-08T20:34:17.356Z,46.90
2018-02-08T20:36:45.659Z,45.73
2018-02-08T20:39:13.990Z,43.77
2018-02-08T20:41:42.367Z,48.50
2018-02-08T20:44:10.740Z,47.00
2018-02-08T20:46:39.046Z,46.80
2018-02-08T20:49:07.386Z,47.53
2018-02-08T20:51:35.705Z,46.77
2018-02-08T20:54:04.053Z,46.80
2018-02-08T20:56:32.366Z,46.00
2018-02-08T20:59:00.699Z,45.30
2018-02-08T21:01:29.019Z,45.10
2018-02-08T21:03:57.363Z,50.53
2018-02-08T21:06:25.686Z,54.93
2018-02-08T21:08:54.019Z,48.97
2018-02-08T21:11:22.343Z,51.93
2018-02-08T21:13:50.732Z,48.30
2018-02-08T21:16:19.094Z,50.63
2018-02-08T21:18:47.428Z,50.60
2018-02-08T21:21:15.756Z,48.67
2018-02-08T21:23:44.078Z,52.43
2018-02-08T21:26:12.409Z,52.97
2018-02-08T21:28:40.730Z,54.90
2018-02-08T21:31:09.107Z,55.70
2018-02-08T21:33:37.405Z,52.77
2018-02-08T21:36:05.741Z,52.97
2018-02-08T21:38:34.061Z,50.77
2018-02-08T21:41:02.389Z,52.97
2018-02-08T21:43:30.736Z,54.03
2018-02-08T21:45:59.197Z,52.97
2018-02-08T21:48:27.513Z,55.53
2018-02-08T21:50:55.937Z,54.47
2018-02-08T21:53:24.313Z,52.63
2018-02-08T21:55:52.622Z,52.87
2018-02-08T21:58:20.972Z,56.07
2018-02-08T22:00:49.298Z,58.07
2018-02-08T22:03:17.642Z,55.20
2018-02-08T22:05:46.021Z,56.07
2018-02-08T22:08:14.301Z,57.70
2018-02-08T22:10:42.693Z,53.83
2018-02-08T22:13:11.044Z,57.93
2018-02-08T22:15:39.395Z,57.63
2018-02-08T22:18:07.729Z,59.87
2018-02-08T22:20:36.085Z,54.87
2018-02-08T22:23:04.511Z,58.00
2018-02-08T22:25:32.834Z,58.33
2018-02-08T22:28:01.185Z,54.40
2018-02-08T22:30:29.500Z,56.43
2018-02-08T22:32:57.953Z,57.50
2018-02-08T22:35:26.279Z,56.70
2018-02-08T22:37:54.610Z,55.27
2018-02-08T22:40:22.984Z,53.83
2018-02-08T22:42:51.322Z,57.20
2018-02-08T22:45:19.664Z,60.07
2018-02-08T22:47:48.101Z,53.57
2018-02-08T22:50:16.493Z,53.00
2018-02-08T22:52:45.742Z,54.60
2018-02-08T22:55:14.090Z,56.90
2018-02-08T22:57:42.415Z,57.43
2018-02-08T23:00:10.779Z,57.07
2018-02-08T23:02:39.209Z,56.13
2018-02-08T23:05:07.573Z,52.90
2018-02-08T23:07:35.973Z,55.80
2018-02-08T23:10:04.309Z,55.93
2018-02-08T23:12:32.721Z,51.90
2018-02-08T23:15:01.035Z,51.67
2018-02-08T23:17:29.355Z,55.87
2018-02-08T23:19:57.682Z,54.97
2018-02-08T23:22:26.038Z,55.67
2018-02-08T23:24:54.375Z,55.70
2018-02-08T23:27:22.707Z,54.07
2018-02-08T23:29:51.042Z,54.43
2018-02-08T23:32:19.633Z,58.30
2018-02-08T23:34:47.989Z,56.77
2018-02-08T23:37:16.333Z,56.53
2018-02-08T23:39:44.655Z,52.87
2018-02-08T23:42:13.057Z,53.63
2018-02-08T23:44:41.479Z,55.27
2018-02-08T23:47:09.772Z,56.63
2018-02-08T23:49:38.103Z,53.80
2018-02-08T23:52:06.430Z,56.07
2018-02-08T23:54:34.771Z,53.43
2018-02-08T23:57:03.090Z,53.17
2018-02-08T23:59:31.650Z,58.27
